Terminal Aerodrome Forecast
Issued by NWS

Current Version | Previous Version | Text Only | Print | Product List | Glossary Off
Versions: 1 2 3 4 5 6 7 8 9 10 11 12 13 14 15 16 17 18 19 20 21 22 23 24 25 26 27

000
FTUS41 KRLX 310500 RRA
TAFCKB
TAF
KCKB 310543Z 3106/0106 VRB03KT P6SM BKN060
     FM311100 00000KT 6SM -SHRA OVC050
     FM311700 22005KT 5SM SHRA BR VCTS OVC040CB PROB30 3117/3120 2SM
      TSRA OVC028CB
     FM312000 21006KT 6SM -SHRA VCTS OVC040CB
     FM010000 VRB03KT 6SM -SHRA BR OVC045
     FM010300 00000KT 4SM SHRA BR OVC025=

USA.gov is the U.S. government's official web portal to all federal, state and local government web resources and services.